Portada
METAR-TAF:

METAR-TAF

Aeropuertos :

Isfahán, Irán

latitud: 32-28N, longitud: 051-43E, altitud: 1590 m

Observación

El informe se hizo hace 20 minutos, a las 12:00 UTC
Viento 6 kt del oeste-noroeste
Temperatura 26°C
Humedad 9%
Presión 1017 hPa
Visibilidad 10 km o más
Escasas nubes a una altura de 3500 ft

METAR: OIFM 161200Z 29006KT 9999 FEW035 26/M09 Q1016 A3002

Hora: 16:50 (12:20 UTC)

Pronóstico

El informe se hizo hace 1 hora y 10 minutos, a las 11:10 UTC
Pronóstico válido del 16 a las 12 UTC al 17 a las 18 UTC
Viento 8 kt del noroeste
Visibilidad: 8000 m
Escasas nubes a una altura de 4000 ft
Temporalmente
del 16 a las 12 UTC al 16 a las 16 UTC
Viento 18 kt del noroeste
Temporalmente
del 17 a las 09 UTC al 17 a las 18 UTC
Viento 18 kt del este-sureste

TAF: OIFM 161110Z 1612/1718 32008KT 8000 FEW040 TEMPO 1612/1616 32018KT TEMPO 1709/1718 11018KT

Observaciones y pronósticos meteorológicos de más de 4000 aeropuertos (mensajes METAR y TAF).

Los puntos amarillos y rojos representan las estaciones disponibles.

Ponga el ratón en el punto deseado para ver el nombre de la estación.

Haga clic para ver las observaciones y los pronósticos meteorológicos.

Para cambiar el mapa : haga clic en los botones verdes con una cruz de color negro para hacer un zoom, en el botón verde con un guión para alejar o en las flechas verdes para mapas adyacentes.


METAR-TAF: